Flight Track Log - Related Links

Times and Time Zones

All times are in EST time to prevent confusion due to time zone crossing. See the EJA396 flight status page for this flight to view local times or setup timezone preferences in your user account.

Time Position Orientation Groundspeed Altitude Reporting Facility
EST Latitude Longitude Course Direction KTS MPH feet Rate Location/Type
Wed 02:16:08 PM 36.0639 -115.1722 209° Southwest 218 251 3,400  Level Los Angeles Center
Wed 02:16:57 PM 36.0133 -115.2075 209° Southwest 257 296 6,100 1,682 Climbing Los Angeles Center
Wed 02:17:55 PM 35.9778 -115.2842 240° Southwest 282 325 6,400 1,043 Climbing Los Angeles Center
Wed 02:18:52 PM 35.9017 -115.3106 196° South 273 314 8,100 1,742 Climbing Los Angeles Center
Wed 02:18:57 PM 35.8992 -115.3097 165° South 275 316 8,200 2,328 Climbing Los Angeles Center
Wed 02:19:59 PM 35.8206 -115.3111 181° South 283 326 10,700 2,419 Climbing Los Angeles Center
Wed 02:21:01 PM 35.7308 -115.3008 175° South 323 372 13,200 2,371 Climbing Los Angeles Center
Wed 02:22:03 PM 35.6369 -115.2936 176° South 344 396 15,600 2,419 Climbing Los Angeles Center
Wed 02:23:05 PM 35.5158 -115.3000 182° South 358 412 18,200 2,448 Climbing Los Angeles Center
Wed 02:24:08 PM 35.4133 -115.3039 182° South 366 421 20,700 2,352 Climbing Los Angeles Center
Wed 02:25:10 PM 35.3086 -115.3089 182° South 374 430 23,100 2,129 Climbing Los Angeles Center
Wed 02:26:12 PM 35.1981 -115.3136 182° South 393 452 25,100 1,839 Climbing Los Angeles Center
Wed 02:27:14 PM 35.0925 -115.3161 181° South 401 461 26,900 919 Climbing Los Angeles Center
Wed 02:28:16 PM 34.9478 -115.3214 182° South 424 488 27,000 48 Climbing Los Angeles Center
Wed 02:29:18 PM 34.8136 -115.3269 182° South 447 514 27,000  Level Los Angeles Center
Wed 02:30:21 PM 34.6933 -115.3689 196° South 449 517 27,000  Level Los Angeles Center
Wed 02:31:23 PM 34.5997 -115.4092 200° South 415 478 27,000  Level Los Angeles Center
Wed 02:32:25 PM 34.4778 -115.4619 200° South 390 449 27,000  Level Los Angeles Center
Wed 02:33:27 PM 34.3769 -115.4342 167° South 376 433 27,000 -435 Level Los Angeles Center
Wed 02:34:29 PM 34.2794 -115.3917 160° South 373 429 26,100 -1,258 Descending Los Angeles Center
Wed 02:35:31 PM 34.1883 -115.3492 159° South 359 413 24,400 -1,824 Descending Los Angeles Center
Wed 02:36:34 PM 34.1175 -115.4172 219° Southwest 353 406 22,300 -2,448 Descending Los Angeles Center
Wed 02:37:36 PM 34.0653 -115.5458 244° Southwest 356 410 19,300 -2,565 Descending Los Angeles Center
Wed 02:38:38 PM 34.0233 -115.6483 244° Southwest 348 400 17,000 -2,323 Descending Los Angeles Center
Wed 02:39:40 PM 33.9822 -115.7461 243° Southwest 334 384 14,500 -2,419 Descending Los Angeles Center
Wed 02:40:42 PM 33.9475 -115.8369 245° Southwest 316 364 12,000 -2,419 Descending Los Angeles Center
Wed 02:41:44 PM 33.9142 -115.9225 245° Southwest 299 344 9,500 -2,400 Descending Los Angeles Center
Wed 02:42:47 PM 33.8736 -116.0203 243° Southwest 285 328 7,000 -1,200 Descending Los Angeles Center
Wed 02:43:49 PM 33.8378 -116.1003 242° Southwest 278 320 7,000  Level Los Angeles Center
Wed 02:44:51 PM 33.8042 -116.1817 244° Southwest 276 318 7,000 -242 Level Los Angeles Center
Wed 02:45:53 PM 33.7711 -116.2617 244° Southwest 267 307 6,500 -1,291 Descending Los Angeles Center
Wed 02:47:29 PM 33.7333 -116.3667 247° West 202 232 3,600 -1,500 Descending Southern California TRACON
Wed 02:48:29 PM 33.7667 -116.4167 309° West 158 182 2,600 -1,000 Descending Southern California TRACON
Wed 02:49:29 PM 33.7833 -116.4500 301° West 140 161 1,600 -850 Descending Southern California TRACON
Wed 02:50:29 PM 33.8000 -116.4833 301° West 126 145 900 -700 Descending Southern California TRACON
Wed 02:52:00 PM 33.8167 -116.5000 307° West  Level FlightAware Approximate
Wed 02:59:00 PM 33.8297 -116.5067 307° West  Level Estimated
Wed 03:00:00 PM 33.8297 -116.5067 307° West  Level Estimated

Login

Don't have an account? Register now (free) for customized features, flight alerts, and more!